Stations météo

réclame
Mon MeteoGroup
Chateau Chinon, France (7270): Température de l'air & dewpoint: 08.10.2019 20:00:00 - 14.10.2019 20:00:00 (CEST)Chateau Chinon, France (7270): Vitesse du vent & gusts: 08.10.2019 20:00:00 - 14.10.2019 20:00:00 (CEST)Chateau Chinon, France (7270): Direction du vent: 08.10.2019 20:00:00 - 14.10.2019 20:00:00 (CEST)Chateau Chinon, France (7270): Quantités de précipitations: 08.10.2019 20:00:00 - 14.10.2019 20:00:00 (CEST)
Date & Time tt [°C] td [°C] ff [km/h] ff [knt] fx [km/h] fx [knt] dd rr [mm]
14.10.2019 20:00:00 - - - - - - - -
14.10.2019 19:00:00 19,3 12,3 9 5 52 28 SSW 0,0
14.10.2019 18:00:00 20,1 12,3 8 4 41 22 S 0,0
14.10.2019 17:00:00 20,8 11,7 13 7 44 24 SE 0,0
14.10.2019 16:00:00 22,2 11,9 9 5 42 23 SE 0,0
14.10.2019 15:00:00 22,7 12,6 8 4 41 22 ESE 0,0
14.10.2019 14:00:00 22,6 12,8 9 5 44 24 SE -
14.10.2019 13:00:00 21,6 12,7 5 3 35 19 SE 0,0
14.10.2019 12:00:00 19,9 11,6 8 4 41 22 ESE 0,0
14.10.2019 11:00:00 19,4 11,4 9 5 35 19 SE 0,0
14.10.2019 10:00:00 17,7 11,0 5 3 31 17 SE 0,0
14.10.2019 09:00:00 14,4 10,6 5 3 28 15 ESE 0,0
14.10.2019 08:00:00 13,6 10,0 5 3 29 16 ESE -
14.10.2019 07:00:00 14,0 10,4 5 3 28 15 ESE 0,0
14.10.2019 06:00:00 13,9 10,5 8 4 22 12 ESE 0,0
14.10.2019 05:00:00 13,6 10,2 5 3 28 15 ESE 0,0
14.10.2019 04:00:00 13,8 10,0 5 3 28 15 ESE 0,0
14.10.2019 03:00:00 15,0 9,8 8 4 26 14 ESE 0,0
14.10.2019 02:00:00 15,7 10,0 8 4 26 14 S -
14.10.2019 01:00:00 16,0 10,3 5 3 41 22 S 0,0
14.10.2019 00:00:00 17,2 10,8 16 9 39 21 SSW 0,0
13.10.2019 23:00:00 17,4 11,0 13 7 35 19 SSW 0,0
13.10.2019 22:00:00 18,2 11,5 15 8 37 20 SSW 0,0
13.10.2019 21:00:00 18,7 11,7 8 4 31 17 S 0,0
13.10.2019 20:00:00 19,0 12,0 8 4 28 15 S -
13.10.2019 19:00:00 19,7 12,2 8 4 28 15 S 0,0
13.10.2019 18:00:00 21,2 12,6 8 4 28 15 S 0,0
13.10.2019 17:00:00 23,2 12,8 8 4 37 20 S 0,0
13.10.2019 16:00:00 23,0 12,6 11 6 35 19 SSE 0,0
13.10.2019 15:00:00 23,1 12,1 11 6 48 26 SSE 0,0
13.10.2019 14:00:00 22,3 12,0 11 6 42 23 S -
13.10.2019 13:00:00 21,6 11,3 9 5 39 21 S 0,0
13.10.2019 12:00:00 19,2 10,7 11 6 46 25 S 0,0
13.10.2019 11:00:00 19,6 11,1 11 6 52 28 S 0,0
13.10.2019 10:00:00 18,5 10,8 9 5 37 20 SSE 0,0
13.10.2019 09:00:00 16,3 11,2 8 4 39 21 ESE 0,0
13.10.2019 08:00:00 16,1 11,3 8 4 37 20 ESE -
13.10.2019 07:00:00 16,0 11,8 9 5 34 18 ESE 0,0
13.10.2019 06:00:00 16,3 11,9 9 5 44 24 SE 0,0
13.10.2019 05:00:00 16,4 12,0 9 5 34 18 SE 0,0
13.10.2019 04:00:00 16,0 11,6 9 5 34 18 SE 0,0
13.10.2019 03:00:00 16,4 11,8 9 5 35 19 ESE 0,0
13.10.2019 02:00:00 17,9 11,5 11 6 35 19 S -
13.10.2019 01:00:00 17,9 11,7 9 5 39 21 S 0,0
13.10.2019 00:00:00 18,2 12,2 16 9 48 26 SSW 0,0
12.10.2019 23:00:00 18,5 12,7 15 8 59 32 SSW 0,0
12.10.2019 22:00:00 18,6 13,0 15 8 42 23 SSW 0,0
12.10.2019 21:00:00 18,9 13,5 13 7 46 25 S 0,0
12.10.2019 20:00:00 18,8 13,9 9 5 39 21 S -
12.10.2019 19:00:00 18,3 14,2 9 5 35 19 SE 0,0
12.10.2019 18:00:00 19,1 14,4 8 4 34 18 SSE 0,0
12.10.2019 17:00:00 20,5 14,2 9 5 37 20 S 0,0
12.10.2019 16:00:00 20,3 14,0 11 6 41 22 SSE 0,0
12.10.2019 15:00:00 19,1 14,4 11 6 34 18 SSE 0,0
12.10.2019 14:00:00 16,4 13,9 8 4 35 19 S -
12.10.2019 13:00:00 14,4 12,8 9 5 34 18 WSW 0,8
12.10.2019 12:00:00 14,2 11,9 16 9 55 30 SSW 0,8
12.10.2019 11:00:00 17,5 12,0 5 3 18 10 ESE 0,2
12.10.2019 10:00:00 15,5 9,4 5 3 24 13 W 0,0
12.10.2019 09:00:00 15,6 8,3 5 3 26 14 SSE 0,0
12.10.2019 08:00:00 15,9 7,6 8 4 31 17 S -
12.10.2019 07:00:00 15,8 7,0 13 7 42 23 SSW 0,0
12.10.2019 06:00:00 16,0 7,0 18 10 41 22 SSW 0,0
12.10.2019 05:00:00 16,1 7,3 21 11 48 26 SSW 0,0
12.10.2019 04:00:00 16,2 7,4 26 14 57 31 SSW 0,0
12.10.2019 03:00:00 16,4 7,6 21 11 44 24 SSW 0,0
12.10.2019 02:00:00 16,3 8,0 18 10 46 25 SSW -
12.10.2019 01:00:00 16,6 8,8 18 10 42 23 SW 0,0
12.10.2019 00:00:00 16,8 9,0 15 8 39 21 SW 0,0
11.10.2019 23:00:00 16,7 8,6 18 10 44 24 SSW 0,0
11.10.2019 22:00:00 17,2 8,1 18 10 41 22 SSW 0,0
11.10.2019 21:00:00 16,0 8,0 9 5 22 12 SSW 0,0
11.10.2019 20:00:00 13,8 8,0 4 2 18 10 S -
11.10.2019 19:00:00 15,1 8,1 5 3 16 9 S 0,0
11.10.2019 18:00:00 16,8 8,7 8 4 26 14 SSW 0,0
11.10.2019 17:00:00 18,5 8,5 11 6 28 15 SW 0,0
11.10.2019 16:00:00 19,1 9,3 8 4 24 13 SSW 0,0
11.10.2019 15:00:00 18,5 9,3 9 5 29 16 SSW 0,0
11.10.2019 14:00:00 17,8 9,7 9 5 31 17 SSW -
11.10.2019 13:00:00 17,1 10,2 9 5 29 16 S 0,0
11.10.2019 12:00:00 15,7 10,5 8 4 26 14 SSW 0,0
11.10.2019 11:00:00 14,1 9,5 9 5 26 14 SSW 0,0
11.10.2019 10:00:00 12,3 8,9 9 5 31 17 SSW 0,0
11.10.2019 09:00:00 10,8 8,4 15 8 35 19 SSW 0,0
11.10.2019 08:00:00 10,5 8,6 11 6 29 16 SW -
11.10.2019 07:00:00 10,2 8,8 5 3 28 15 SW 0,0
11.10.2019 06:00:00 10,8 9,7 8 4 28 15 SW 0,0
11.10.2019 05:00:00 11,2 10,4 8 4 26 14 SW 0,0
11.10.2019 04:00:00 11,4 10,6 4 2 28 15 WSW 0,0
11.10.2019 03:00:00 11,5 10,7 4 2 34 18 W 0,2
11.10.2019 02:00:00 11,6 10,7 13 7 34 18 SW -
11.10.2019 01:00:00 11,5 11,0 11 6 29 16 SW 0,0
11.10.2019 00:00:00 11,4 11,1 5 3 26 14 SW 0,6
10.10.2019 23:00:00 11,5 10,9 4 2 24 13 WSW 0,0
10.10.2019 22:00:00 11,6 10,7 8 4 28 15 SW 0,0
10.10.2019 21:00:00 11,7 10,3 5 3 22 12 WSW 0,0
10.10.2019 20:00:00 11,7 9,8 4 2 26 14 W -
10.10.2019 19:00:00 11,9 9,5 4 2 22 12 NW 0,0
10.10.2019 18:00:00 13,5 9,3 4 2 29 16 W 0,0
10.10.2019 17:00:00 13,7 10,1 2 1 21 11 W 0,0
10.10.2019 16:00:00 14,3 9,5 4 2 22 12 NW 0,0
10.10.2019 15:00:00 12,4 10,3 2 1 18 10 SE 0,0
10.10.2019 14:00:00 12,8 10,5 4 2 22 12 NNW -
10.10.2019 13:00:00 11,8 11,0 4 2 22 12 N 0,0
10.10.2019 12:00:00 10,9 10,9 4 2 22 12 NNE 0,2
10.10.2019 11:00:00 9,7 9,7 4 2 22 12 NE 0,0
10.10.2019 10:00:00 9,1 9,1 4 2 34 18 N 0,2
10.10.2019 09:00:00 8,9 8,9 5 3 26 14 NW 0,8
10.10.2019 08:00:00 8,7 8,7 5 3 41 22 NNW -
10.10.2019 07:00:00 8,8 8,8 5 3 41 22 N 0,2
10.10.2019 06:00:00 8,7 8,6 4 2 34 18 NNW 1,0
10.10.2019 05:00:00 8,8 8,5 5 3 39 21 NW 0,0
10.10.2019 04:00:00 8,9 8,4 5 3 34 18 NW 0,0
10.10.2019 03:00:00 9,0 8,4 8 4 34 18 NW 0,0
10.10.2019 02:00:00 9,2 8,4 5 3 41 22 NNW -
10.10.2019 01:00:00 9,4 8,5 5 3 34 18 NW 0,0
10.10.2019 00:00:00 9,7 8,6 8 4 35 19 WNW 0,0
09.10.2019 23:00:00 9,9 8,5 5 3 42 23 NNW 0,0
09.10.2019 22:00:00 10,0 8,4 5 3 37 20 NW 0,0
09.10.2019 21:00:00 10,6 8,9 8 4 41 22 WNW 0,0
09.10.2019 20:00:00 10,5 8,6 5 3 35 19 W -
09.10.2019 19:00:00 10,1 8,5 8 4 35 19 WSW 0,0
09.10.2019 18:00:00 10,2 8,0 8 4 35 19 NW 0,0
09.10.2019 17:00:00 11,7 9,3 5 3 35 19 NW 0,0
09.10.2019 16:00:00 11,2 9,1 8 4 34 18 NW 0,0
09.10.2019 15:00:00 10,8 9,6 5 3 42 23 W 0,0
09.10.2019 14:00:00 10,3 9,8 8 4 35 19 W -
09.10.2019 13:00:00 10,1 9,8 8 4 37 20 WNW 0,2
09.10.2019 12:00:00 10,1 9,6 5 3 48 26 WNW 0,6
09.10.2019 11:00:00 10,6 10,4 5 3 46 25 W 0,0
09.10.2019 10:00:00 10,5 10,5 8 4 35 19 WSW 0,0
09.10.2019 09:00:00 9,0 9,0 5 3 31 17 WSW 0,0
09.10.2019 08:00:00 8,5 8,5 5 3 21 11 W -
09.10.2019 07:00:00 8,8 8,8 4 2 26 14 NNW 0,0
09.10.2019 06:00:00 9,3 9,3 4 2 21 11 NNE 0,0
09.10.2019 05:00:00 9,7 9,7 4 2 18 10 NNE 0,0
09.10.2019 04:00:00 10,2 10,2 4 2 22 12 N 0,0
09.10.2019 03:00:00 10,2 10,0 2 1 18 10 N 0,0
09.10.2019 02:00:00 10,3 10,1 2 1 15 8 N -
09.10.2019 01:00:00 10,8 10,6 4 2 16 9 N 0,2
09.10.2019 00:00:00 10,7 10,4 2 1 22 12 N 0,2
08.10.2019 23:00:00 12,5 12,2 5 3 29 16 NW 2,0
08.10.2019 22:00:00 13,6 13,4 4 2 21 11 NNW 0,4
08.10.2019 21:00:00 13,9 13,4 5 3 28 15 NE 0,8
08.10.2019 20:00:00 15,3 14,2 4 2 39 21 NNW -

tt = Température de l'air
td = dewpoint
ff = Vitesse du vent
fx = gusts
dd = Direction du vent
rr = Quantités de précipitations

stations d'obs. à proximité